Time;durP1;ratioP1;P1;durP2;ratioP2;P2;SDS_P1;SDS_P2;PMS_P1;PMS_P2;Temp;Humidity;BMP_temperature;BMP_pressure;BME280_temperature;BME280_humidity;BME280_pressure;Samples;Min_cycle;Max_cycle;Signal;HPM_P1;HPM_P2
2021/10/15 00:00:14;;;;;;;14.13;9.60;;;;;;;5.64;77.85;100923.75;5052289;28;20131;-70
2021/10/15 00:02:40;;;;;;;11.67;9.33;;;;;;;5.61;77.50;100924.84;5054860;28;20040;-69
2021/10/15 00:05:06;;;;;;;14.07;8.97;;;;;;;5.57;78.14;100918.97;5054589;28;20041;-68
2021/10/15 00:07:32;;;;;;;11.17;7.77;;;;;;;5.66;77.74;100917.38;5054178;28;20119;-67
2021/10/15 00:09:57;;;;;;;11.40;9.53;;;;;;;5.72;77.87;100916.84;5054471;28;20112;-70
2021/10/15 00:12:23;;;;;;;11.57;8.20;;;;;;;5.72;77.32;100906.28;5054093;28;20049;-67
2021/10/15 00:14:48;;;;;;;9.67;8.60;;;;;;;5.80;77.50;100922.34;5054526;28;20040;-68
2021/10/15 00:17:14;;;;;;;11.90;8.70;;;;;;;5.79;76.95;100907.47;5054181;28;20056;-68
2021/10/15 00:19:39;;;;;;;14.40;9.77;;;;;;;5.82;76.98;100911.66;5054068;28;20474;-68
2021/10/15 00:22:05;;;;;;;12.43;8.10;;;;;;;5.88;77.06;100911.13;5053877;28;20039;-70
2021/10/15 00:24:30;;;;;;;12.87;9.13;;;;;;;5.95;76.71;100916.78;5054261;28;20037;-70
2021/10/15 00:26:56;;;;;;;13.17;9.20;;;;;;;5.92;75.97;100911.75;5053846;28;20041;-69
2021/10/15 00:29:21;;;;;;;11.90;8.53;;;;;;;5.74;76.62;100888.47;5054074;28;20078;-68
2021/10/15 00:31:47;;;;;;;10.67;8.03;;;;;;;5.88;76.71;100911.97;5053667;28;20063;-68
2021/10/15 00:34:12;;;;;;;12.40;9.07;;;;;;;5.80;76.44;100890.66;5053714;28;20048;-68
2021/10/15 00:36:38;;;;;;;11.37;9.27;;;;;;;5.74;77.01;100899.06;5053737;28;20480;-68
2021/10/15 00:39:03;;;;;;;12.37;8.50;;;;;;;5.74;76.95;100896.41;5053550;28;20078;-69
2021/10/15 00:41:29;;;;;;;12.10;8.83;;;;;;;5.76;76.56;100891.00;5053894;28;20032;-68
2021/10/15 00:44:13;;;;;;;10.63;7.57;;;;;;;5.79;76.02;100886.31;5053627;28;20033;-68
2021/10/15 00:46:41;;;;;;;11.67;8.00;;;;;;;5.82;76.46;100879.94;5053654;28;20032;-68
2021/10/15 00:49:12;;;;;;;10.10;8.13;;;;;;;5.96;76.73;100892.00;5053537;28;20056;-69
2021/10/15 00:51:40;;;;;;;11.07;7.40;;;;;;;5.99;76.00;100883.81;5053457;28;20037;-68
2021/10/15 00:54:05;;;;;;;10.27;7.60;;;;;;;5.99;76.14;100892.59;5053683;28;20049;-68
2021/10/15 00:56:32;;;;;;;13.33;8.53;;;;;;;5.95;75.84;100879.75;5053489;28;20132;-68
2021/10/15 00:59:00;;;;;;;12.00;6.80;;;;;;;5.96;75.63;100881.44;5053451;28;20514;-68
2021/10/15 01:01:26;;;;;;;9.60;7.75;;;;;;;5.93;75.55;100871.13;5053237;28;20115;-69
2021/10/15 01:03:51;;;;;;;10.80;8.00;;;;;;;5.90;75.54;100865.13;5053310;28;20097;-69
2021/10/15 01:06:17;;;;;;;9.73;7.33;;;;;;;5.90;75.07;100873.06;5053476;28;20534;-68
2021/10/15 01:08:46;;;;;;;10.20;7.50;;;;;;;5.95;75.34;100863.91;5053295;28;20083;-68
2021/10/15 01:11:16;;;;;;;9.17;6.60;;;;;;;6.03;74.71;100866.72;5053305;28;20084;-69
2021/10/15 01:13:42;;;;;;;8.70;7.37;;;;;;;6.05;74.37;100867.44;5053141;28;20549;-69
2021/10/15 01:16:10;;;;;;;8.83;6.97;;;;;;;6.05;74.40;100859.50;5052874;28;20110;-67
2021/10/15 01:18:38;;;;;;;11.63;6.93;;;;;;;6.04;74.25;100863.94;5053082;28;20029;-70
2021/10/15 01:21:08;;;;;;;8.87;6.83;;;;;;;5.93;73.82;100834.13;5053072;28;20095;-69
2021/10/15 01:23:34;;;;;;;9.10;6.80;;;;;;;6.03;74.59;100850.84;5053095;28;20132;-71
2021/10/15 01:25:59;;;;;;;9.10;6.60;;;;;;;6.01;73.94;100847.50;5052922;28;20131;-68
2021/10/15 01:28:27;;;;;;;8.93;6.87;;;;;;;6.01;74.85;100850.16;5052964;28;20045;-69
2021/10/15 01:30:53;;;;;;;8.83;6.70;;;;;;;6.02;75.02;100850.03;5052652;28;20116;-70
2021/10/15 01:33:19;;;;;;;8.13;6.43;;;;;;;6.01;74.53;100842.22;5052805;28;20056;-68
2021/10/15 01:35:45;;;;;;;8.10;6.93;;;;;;;5.96;74.67;100844.44;5051584;28;20511;-67
2021/10/15 01:38:11;;;;;;;8.43;6.07;;;;;;;5.96;75.41;100849.72;5053066;28;20070;-68
2021/10/15 01:40:37;;;;;;;9.87;7.27;;;;;;;5.92;75.50;100837.72;5052924;28;20032;-69
2021/10/15 01:43:03;;;;;;;6.47;5.77;;;;;;;5.91;74.99;100836.91;5054140;28;20037;-68
2021/10/15 01:45:30;;;;;;;7.87;6.17;;;;;;;5.90;75.14;100849.28;5053643;28;20117;-69
2021/10/15 01:47:57;;;;;;;7.43;5.73;;;;;;;5.90;75.56;100841.34;5053016;28;20041;-69
2021/10/15 01:50:24;;;;;;;8.27;5.43;;;;;;;5.83;75.22;100834.88;5052495;28;20455;-67
2021/10/15 01:52:51;;;;;;;8.70;5.90;;;;;;;5.74;75.81;100838.28;5052153;28;20052;-69
2021/10/15 01:55:18;;;;;;;7.63;5.47;;;;;;;5.72;76.25;100840.22;5052529;28;20041;-67
2021/10/15 01:57:43;;;;;;;5.57;4.87;;;;;;;5.72;76.48;100845.50;5052404;28;20132;-67
2021/10/15 02:00:11;;;;;;;8.67;6.00;;;;;;;5.66;76.46;100838.09;5052115;28;20427;-68
2021/10/15 02:02:36;;;;;;;7.83;6.07;;;;;;;5.61;76.08;100835.00;5052515;28;20064;-69
2021/10/15 02:05:03;;;;;;;5.97;4.97;;;;;;;5.57;76.57;100836.22;5052386;28;20029;-68
2021/10/15 02:07:29;;;;;;;7.10;5.33;;;;;;;5.50;77.00;100827.16;5050953;28;20032;-69
2021/10/15 02:09:54;;;;;;;7.67;6.30;;;;;;;5.42;76.96;100822.50;5052108;28;20480;-68
2021/10/15 02:12:20;;;;;;;6.67;5.53;;;;;;;5.33;77.78;100833.00;5051805;28;20087;-69
2021/10/15 02:14:45;;;;;;;6.50;5.50;;;;;;;5.21;77.94;100830.41;5052041;28;20389;-69
2021/10/15 02:17:10;;;;;;;5.53;4.73;;;;;;;5.11;78.51;100829.47;5052270;28;20123;-67
2021/10/15 02:19:36;;;;;;;6.83;4.77;;;;;;;4.98;79.51;100816.44;5052060;28;20115;-69
2021/10/15 02:22:02;;;;;;;5.27;4.60;;;;;;;5.07;79.34;100833.31;5051725;28;20353;-69
2021/10/15 02:24:28;;;;;;;6.07;4.80;;;;;;;5.08;78.80;100821.81;5051501;28;20037;-70
2021/10/15 02:26:53;;;;;;;5.90;4.47;;;;;;;5.04;79.00;100817.75;5051784;28;20334;-71
2021/10/15 02:29:19;;;;;;;5.43;4.50;;;;;;;5.06;79.01;100823.72;5051687;28;20139;-69
2021/10/15 02:31:44;;;;;;;5.63;4.63;;;;;;;5.03;78.66;100813.44;5050735;28;20136;-68
2021/10/15 02:34:11;;;;;;;5.40;4.17;;;;;;;5.00;79.12;100813.69;5051460;28;20101;-68
2021/10/15 02:36:36;;;;;;;6.93;4.50;;;;;;;4.80;79.00;100790.72;5051497;28;20036;-70
2021/10/15 02:39:03;;;;;;;6.33;4.43;;;;;;;4.94;78.50;100814.19;5050469;28;20039;-68
2021/10/15 02:41:28;;;;;;;6.27;4.47;;;;;;;4.94;78.83;100808.91;5051345;28;20075;-69
2021/10/15 02:43:54;;;;;;;5.17;4.23;;;;;;;4.90;78.66;100810.09;5051305;28;20622;-66
2021/10/15 02:46:19;;;;;;;4.73;4.10;;;;;;;4.66;79.06;100773.38;5051571;28;20037;-68
2021/10/15 02:48:45;;;;;;;6.40;3.80;;;;;;;4.82;78.69;100807.25;5051538;28;20033;-69
2021/10/15 02:51:11;;;;;;;6.90;3.77;;;;;;;4.74;79.40;100799.13;5051641;28;20102;-69
2021/10/15 02:53:38;;;;;;;5.40;4.10;;;;;;;4.70;79.53;100805.63;5051223;28;20095;-70
2021/10/15 02:56:04;;;;;;;4.33;3.93;;;;;;;4.60;79.50;100795.78;5051267;28;20072;-68
2021/10/15 02:58:30;;;;;;;7.80;4.50;;;;;;;4.52;80.45;100789.47;5051242;28;20111;-68
2021/10/15 03:00:55;;;;;;;5.67;4.33;;;;;;;4.51;80.08;100791.25;5050200;28;20135;-68
2021/10/15 03:03:20;;;;;;;4.47;4.07;;;;;;;4.47;80.26;100795.09;5051600;28;20068;-69
2021/10/15 03:05:46;;;;;;;4.33;3.20;;;;;;;4.43;79.81;100792.84;5051336;28;20033;-68
2021/10/15 03:08:11;;;;;;;4.20;3.80;;;;;;;4.39;79.84;100794.06;5051322;28;20041;-69
2021/10/15 03:10:37;;;;;;;4.27;3.87;;;;;;;4.36;79.93;100787.22;5051108;28;20036;-70
2021/10/15 03:13:03;;;;;;;5.43;4.70;;;;;;;4.35;80.41;100790.81;5050980;28;20040;-69
2021/10/15 03:15:29;;;;;;;6.97;4.10;;;;;;;4.31;80.71;100794.63;5051239;28;20033;-67
2021/10/15 03:17:54;;;;;;;4.93;4.43;;;;;;;4.25;80.50;100779.31;5051368;28;20033;-68
2021/10/15 03:20:21;;;;;;;5.00;3.37;;;;;;;4.21;80.29;100770.81;5051236;28;20033;-70
2021/10/15 03:22:46;;;;;;;4.07;3.60;;;;;;;4.24;80.59;100773.19;5051072;28;20037;-70
2021/10/15 03:25:12;;;;;;;5.43;3.93;;;;;;;4.20;80.46;100773.56;5051171;28;20282;-68
2021/10/15 03:27:38;;;;;;;4.80;4.40;;;;;;;4.19;80.93;100769.25;5051027;28;20404;-67
2021/10/15 03:30:06;;;;;;;5.20;4.27;;;;;;;4.16;80.91;100766.88;5051139;28;20291;-69
2021/10/15 03:32:31;;;;;;;5.60;4.33;;;;;;;4.10;80.58;100760.28;5050905;28;20504;-69
2021/10/15 03:34:57;;;;;;;6.63;4.57;;;;;;;4.09;80.47;100763.06;5052015;28;20271;-68
2021/10/15 03:37:23;;;;;;;6.10;4.73;;;;;;;4.04;80.97;100761.59;5054934;28;20036;-69
2021/10/15 03:39:50;;;;;;;5.70;4.37;;;;;;;3.97;81.09;100757.75;5054701;28;20044;-69
2021/10/15 03:42:15;;;;;;;6.50;4.30;;;;;;;3.98;80.71;100767.34;5055052;28;20263;-67
2021/10/15 03:44:41;;;;;;;8.37;4.30;;;;;;;3.93;81.14;100761.59;5055084;28;20267;-71
2021/10/15 03:47:06;;;;;;;5.30;4.33;;;;;;;3.91;81.31;100760.88;5054979;28;20032;-68
2021/10/15 03:49:32;;;;;;;5.33;3.90;;;;;;;3.89;81.03;100757.53;5054742;28;20029;-69
2021/10/15 03:51:57;;;;;;;7.90;4.70;;;;;;;3.87;81.50;100745.44;5054647;28;20460;-68
2021/10/15 03:54:23;;;;;;;5.90;4.50;;;;;;;3.87;81.09;100748.91;5054424;28;20037;-68
2021/10/15 03:56:48;;;;;;;8.30;4.60;;;;;;;3.84;81.33;100738.63;5054919;28;20431;-67
2021/10/15 03:59:14;;;;;;;5.87;4.00;;;;;;;3.82;81.82;100734.44;5054921;28;20520;-69
2021/10/15 04:01:40;;;;;;;10.73;5.00;;;;;;;3.80;81.72;100737.19;5055298;28;20047;-68
2021/10/15 04:04:05;;;;;;;6.93;4.40;;;;;;;3.75;81.21;100728.78;5055325;28;20040;-72
2021/10/15 04:06:30;;;;;;;4.97;3.90;;;;;;;3.71;81.73;100728.19;5054926;28;20098;-70
2021/10/15 04:08:56;;;;;;;5.63;3.90;;;;;;;3.61;81.51;100710.59;5053266;28;20033;-71
2021/10/15 04:11:21;;;;;;;5.40;3.77;;;;;;;3.68;81.54;100724.94;5054548;28;20480;-71
2021/10/15 04:13:47;;;;;;;7.27;4.30;;;;;;;3.64;81.25;100718.25;5055784;28;20411;-76
2021/10/15 04:16:12;;;;;;;7.43;5.10;;;;;;;3.60;81.16;100719.44;5055925;28;20045;-72
2021/10/15 04:18:38;;;;;;;4.57;3.73;;;;;;;3.59;81.42;100723.03;5054893;28;20049;-76
2021/10/15 04:21:03;;;;;;;6.43;4.90;;;;;;;3.55;81.39;100717.19;5054356;28;20032;-70
2021/10/15 04:23:29;;;;;;;5.97;4.77;;;;;;;3.49;81.76;100722.09;5053901;28;20142;-71
2021/10/15 04:25:54;;;;;;;8.80;5.73;;;;;;;3.45;82.11;100715.34;5053885;28;20036;-69
2021/10/15 04:28:20;;;;;;;8.97;5.37;;;;;;;3.44;81.80;100714.50;5054076;28;20428;-69
2021/10/15 04:30:47;;;;;;;8.73;5.53;;;;;;;3.46;82.21;100714.41;5054210;28;20037;-72
2021/10/15 04:33:12;;;;;;;8.07;5.37;;;;;;;3.37;82.22;100706.25;5052774;28;20140;-70
2021/10/15 04:35:37;;;;;;;8.90;6.60;;;;;;;3.36;82.32;100707.22;5053907;28;20275;-76
2021/10/15 04:38:03;;;;;;;8.37;5.80;;;;;;;3.39;82.29;100711.41;5053172;28;20037;-69
2021/10/15 04:40:28;;;;;;;8.70;6.17;;;;;;;3.38;81.75;100709.72;5053826;28;20554;-69
2021/10/15 04:42:54;;;;;;;6.27;5.60;;;;;;;3.35;81.31;100708.16;5053751;28;20040;-69
2021/10/15 04:45:19;;;;;;;7.20;5.30;;;;;;;3.35;81.60;100705.53;5053544;28;20037;-74
2021/10/15 04:47:45;;;;;;;7.47;5.70;;;;;;;3.34;81.31;100701.22;5053849;28;20149;-65
2021/10/15 04:50:10;;;;;;;8.40;5.43;;;;;;;3.32;81.07;100695.25;5053648;28;20352;-64
2021/10/15 04:52:36;;;;;;;9.63;5.53;;;;;;;3.36;81.24;100699.31;5053478;28;20084;-67
2021/10/15 04:55:03;;;;;;;8.13;5.67;;;;;;;3.34;81.10;100703.03;5053255;28;20037;-65
2021/10/15 04:57:28;;;;;;;6.40;5.10;;;;;;;3.34;80.90;100698.59;5053154;28;20045;-65
2021/10/15 04:59:54;;;;;;;7.73;5.70;;;;;;;3.34;80.94;100693.34;5053265;28;20328;-65
2021/10/15 05:02:19;;;;;;;11.23;6.73;;;;;;;3.37;80.47;100695.72;5053113;28;20036;-65
2021/10/15 05:04:44;;;;;;;11.87;6.73;;;;;;;3.35;80.66;100684.47;5052917;28;20040;-65
2021/10/15 05:07:10;;;;;;;14.47;6.57;;;;;;;3.38;80.22;100689.50;5053100;28;20032;-64
2021/10/15 05:09:36;;;;;;;11.27;5.67;;;;;;;3.38;80.09;100688.66;5053104;28;20029;-67
2021/10/15 05:12:04;;;;;;;9.97;6.83;;;;;;;3.38;79.88;100684.25;5053424;28;20041;-66
2021/10/15 05:14:32;;;;;;;7.68;5.60;;;;;;;3.31;79.98;100672.50;5053279;28;20275;-64
2021/10/15 05:16:59;;;;;;;9.03;5.63;;;;;;;3.40;79.56;100682.31;5053143;28;20041;-65
2021/10/15 05:19:24;;;;;;;11.17;6.60;;;;;;;3.43;79.39;100681.25;5053119;28;20276;-65
2021/10/15 05:21:49;;;;;;;7.00;5.67;;;;;;;3.42;79.40;100669.03;5052904;28;20267;-65
2021/10/15 05:24:15;;;;;;;12.50;6.80;;;;;;;3.45;79.65;100658.28;5052850;28;20175;-64
2021/10/15 05:26:41;;;;;;;9.27;5.20;;;;;;;3.47;79.21;100655.50;5053026;28;20040;-65
2021/10/15 05:29:06;;;;;;;7.80;5.33;;;;;;;3.50;78.76;100655.31;5052990;28;20403;-64
2021/10/15 05:31:31;;;;;;;6.63;5.03;;;;;;;3.52;78.74;100658.66;5053121;28;20037;-64
2021/10/15 05:33:57;;;;;;;7.83;5.57;;;;;;;3.59;78.85;100657.22;5052997;28;20087;-65
2021/10/15 05:36:22;;;;;;;7.23;5.67;;;;;;;3.58;78.13;100653.75;5052517;28;20033;-65
2021/10/15 05:38:47;;;;;;;7.63;5.70;;;;;;;3.64;78.21;100655.03;5052206;28;20029;-64
2021/10/15 05:41:13;;;;;;;12.27;5.63;;;;;;;3.61;77.99;100636.84;5052603;28;20052;-65
2021/10/15 05:43:39;;;;;;;10.20;5.60;;;;;;;3.70;77.62;100644.84;5052441;28;20082;-64
2021/10/15 05:46:05;;;;;;;7.83;4.77;;;;;;;3.73;77.48;100649.03;5052574;28;20036;-65
2021/10/15 05:48:30;;;;;;;12.03;5.33;;;;;;;3.75;77.64;100633.94;5052336;28;20075;-66
2021/10/15 05:50:56;;;;;;;10.37;4.83;;;;;;;3.79;76.50;100632.78;5052279;28;20112;-65
2021/10/15 05:53:23;;;;;;;9.17;6.10;;;;;;;3.84;76.55;100627.13;5052085;28;20396;-65
2021/10/15 06:01:04;;;;;;;11.27;5.83;;;;;;;3.93;76.63;100616.69;5052607;28;20262;-65
2021/10/15 06:03:29;;;;;;;6.70;5.40;;;;;;;3.94;75.80;100615.72;5052060;28;20257;-65
2021/10/15 06:16:34;;;;;;;6.73;5.20;;;;;;;4.09;75.06;100586.47;5052092;28;20270;-63
2021/10/15 06:19:11;;;;;;;6.40;4.57;;;;;;;4.14;74.70;100584.28;5051709;28;20275;-68
2021/10/15 06:21:36;;;;;;;7.00;4.80;;;;;;;4.16;74.89;100585.84;5050456;28;20329;-66
2021/10/15 06:24:02;;;;;;;7.17;4.43;;;;;;;4.15;75.58;100573.63;5051992;28;20670;-67
2021/10/15 06:26:28;;;;;;;8.27;5.33;;;;;;;4.20;74.36;100574.06;5051545;28;20044;-67
2021/10/15 06:28:54;;;;;;;7.47;3.90;;;;;;;4.22;74.94;100573.94;5051528;28;20255;-70
2021/10/15 06:31:19;;;;;;;8.53;4.67;;;;;;;4.32;74.48;100582.75;5051819;28;20029;-69
2021/10/15 06:33:45;;;;;;;12.17;6.13;;;;;;;4.26;74.54;100562.19;5051670;28;20518;-68
2021/10/15 06:36:10;;;;;;;9.33;5.90;;;;;;;4.37;74.00;100562.16;5051426;28;20091;-67
2021/10/15 06:38:36;;;;;;;13.63;6.67;;;;;;;4.49;74.38;100571.66;5051738;28;20120;-68
2021/10/15 06:41:02;;;;;;;6.13;5.07;;;;;;;4.50;73.67;100562.78;5051379;28;20488;-67
2021/10/15 06:44:23;;;;;;;6.80;4.90;;;;;;;4.60;73.42;100579.50;5051410;28;20032;-69
2021/10/15 06:46:49;;;;;;;6.10;4.43;;;;;;;4.59;73.15;100567.28;5051551;28;20045;-70
2021/10/15 06:49:14;;;;;;;14.07;5.93;;;;;;;4.64;73.08;100574.84;5051338;28;20770;-67
2021/10/15 06:51:40;;;;;;;10.63;6.97;;;;;;;4.70;73.06;100566.41;5051014;28;20036;-70
2021/10/15 06:54:05;;;;;;;7.23;4.63;;;;;;;4.71;72.26;100554.03;5051140;28;20056;-73
2021/10/15 06:56:31;;;;;;;9.07;4.87;;;;;;;4.60;72.59;100539.09;5051480;28;20043;-68
2021/10/15 06:58:56;;;;;;;7.87;4.73;;;;;;;4.80;72.63;100555.88;5050874;28;20041;-69
2021/10/15 07:01:22;;;;;;;8.57;5.63;;;;;;;4.84;73.12;100554.66;5051260;28;20041;-70
2021/10/15 07:03:47;;;;;;;8.87;5.33;;;;;;;4.88;72.26;100548.97;5051194;28;20029;-70
2021/10/15 07:06:13;;;;;;;7.00;4.63;;;;;;;4.97;72.49;100552.66;5051295;28;20415;-72
2021/10/15 07:08:38;;;;;;;7.30;4.50;;;;;;;5.00;71.87;100541.84;5052118;28;20041;-64
2021/10/15 07:11:04;;;;;;;9.33;5.23;;;;;;;5.13;71.79;100552.16;5053975;28;20471;-64
2021/10/15 07:13:31;;;;;;;7.83;4.90;;;;;;;5.16;71.88;100534.25;5055046;28;20033;-65
2021/10/15 07:15:57;;;;;;;6.83;5.07;;;;;;;5.22;71.69;100532.91;5054956;28;20396;-66
2021/10/15 07:18:22;;;;;;;11.80;5.03;;;;;;;5.26;71.21;100521.94;5055166;28;20033;-67
2021/10/15 07:20:48;;;;;;;7.03;4.83;;;;;;;5.31;71.21;100520.69;5054684;28;20033;-69
2021/10/15 07:23:14;;;;;;;11.67;6.27;;;;;;;5.39;71.46;100528.75;5055122;28;20040;-69
2021/10/15 07:25:40;;;;;;;16.67;5.43;;;;;;;5.46;70.58;100521.97;5053793;28;20047;-69
2021/10/15 07:28:07;;;;;;;7.17;4.77;;;;;;;5.45;70.66;100533.50;5055118;28;20451;-68
2021/10/15 07:30:32;;;;;;;13.63;6.60;;;;;;;5.49;70.55;100524.34;5054930;28;20049;-71
2021/10/15 07:32:57;;;;;;;4.97;4.33;;;;;;;5.57;70.17;100516.59;5053391;28;20036;-67
2021/10/15 07:35:23;;;;;;;7.60;5.53;;;;;;;5.63;69.99;100500.19;5054467;28;20041;-66
2021/10/15 07:37:48;;;;;;;9.47;4.90;;;;;;;5.77;69.35;100510.34;5053400;28;20029;-65
2021/10/15 07:40:14;;;;;;;13.07;6.90;;;;;;;5.80;69.90;100482.81;5054941;28;20072;-65
2021/10/15 07:42:39;;;;;;;6.73;5.00;;;;;;;5.88;69.33;100478.50;5054821;28;20415;-69
2021/10/15 07:45:05;;;;;;;7.53;5.27;;;;;;;6.04;69.27;100496.47;5054919;28;20128;-67
2021/10/15 07:47:31;;;;;;;6.20;4.97;;;;;;;6.15;69.31;100498.97;5054787;28;20048;-67
2021/10/15 07:49:56;;;;;;;8.67;6.00;;;;;;;6.26;67.83;100486.56;5054447;28;20113;-71
2021/10/15 07:52:22;;;;;;;8.23;4.47;;;;;;;6.30;67.75;100477.38;5054363;28;20064;-69
2021/10/15 07:54:48;;;;;;;9.60;6.03;;;;;;;6.42;66.80;100477.09;5054769;28;20036;-71
2021/10/15 07:57:13;;;;;;;12.87;5.17;;;;;;;6.51;67.14;100470.09;5054272;28;20090;-67
2021/10/15 07:59:40;;;;;;;8.13;6.03;;;;;;;6.66;66.58;100478.44;5054735;28;20037;-67
2021/10/15 08:02:05;;;;;;;7.73;5.57;;;;;;;6.81;65.55;100482.25;5053507;28;20044;-66
2021/10/15 08:04:30;;;;;;;5.33;4.83;;;;;;;6.83;66.10;100464.41;5054170;28;20032;-71
2021/10/15 08:06:56;;;;;;;7.50;5.77;;;;;;;6.95;65.70;100463.25;5054238;28;20033;-69
2021/10/15 08:09:22;;;;;;;10.67;6.73;;;;;;;7.08;65.37;100458.44;5053176;28;20073;-74
2021/10/15 08:11:51;;;;;;;17.13;13.30;;;;;;;7.14;65.31;100452.56;5054117;28;20037;-71
2021/10/15 08:14:18;;;;;;;9.13;5.50;;;;;;;7.23;64.68;100455.28;5052840;28;20136;-68
2021/10/15 08:16:44;;;;;;;11.03;6.20;;;;;;;7.30;64.59;100451.09;5054176;28;20040;-68
2021/10/15 08:19:10;;;;;;;11.97;7.17;;;;;;;7.40;63.82;100459.78;5053558;28;20037;-69
2021/10/15 08:21:35;;;;;;;9.07;6.40;;;;;;;7.40;64.75;100452.69;5052686;28;20098;-67
2021/10/15 08:24:01;;;;;;;6.83;5.27;;;;;;;7.48;63.55;100443.97;5053807;28;20386;-64
2021/10/15 08:26:26;;;;;;;11.97;5.77;;;;;;;7.46;63.46;100440.66;5054389;28;20048;-68
2021/10/15 08:28:58;;;;;;;13.00;6.30;;;;;;;7.42;64.53;100428.69;5052576;28;20036;-71
2021/10/15 08:31:24;;;;;;;11.93;6.80;;;;;;;7.46;64.38;100430.88;5053017;28;20036;-69
2021/10/15 08:33:49;;;;;;;12.10;7.43;;;;;;;7.47;64.36;100423.75;5052463;28;20140;-65
2021/10/15 08:36:15;;;;;;;9.87;6.67;;;;;;;7.50;64.52;100410.22;5053555;28;20055;-67
2021/10/15 08:38:41;;;;;;;7.30;6.60;;;;;;;7.53;64.07;100409.09;5053770;28;20048;-67
2021/10/15 08:41:06;;;;;;;11.87;7.03;;;;;;;7.59;64.22;100409.31;5050411;28;20404;-67
2021/10/15 08:43:37;;;;;;;16.27;8.03;;;;;;;7.64;64.21;100414.16;5053666;28;20606;-67
2021/10/15 08:46:03;;;;;;;12.80;6.87;;;;;;;7.70;64.00;100406.41;5052446;28;20076;-69
2021/10/15 08:48:29;;;;;;;9.53;7.30;;;;;;;7.69;63.68;100380.06;5054389;28;20554;-66
2021/10/15 08:50:56;;;;;;;7.87;5.53;;;;;;;7.76;63.54;100397.03;5052385;28;20041;-65
2021/10/15 08:53:22;;;;;;;17.07;8.60;;;;;;;7.69;63.89;100382.72;5053310;28;20218;-65
2021/10/15 08:55:48;;;;;;;13.53;6.80;;;;;;;7.68;64.17;100389.84;5053630;28;20041;-70
2021/10/15 08:58:13;;;;;;;16.03;7.60;;;;;;;7.61;65.07;100386.16;5053437;28;20044;-67
2021/10/15 09:00:39;;;;;;;7.70;6.10;;;;;;;7.67;63.94;100384.69;5053448;28;20396;-65
2021/10/15 09:03:24;;;;;;;10.47;6.17;;;;;;;7.77;64.42;100377.47;5053031;28;20051;-72
2021/10/15 09:06:00;;;;;;;10.70;6.90;;;;;;;7.80;64.62;100378.97;5053258;28;20485;-67
2021/10/15 09:08:41;;;;;;;9.90;6.90;;;;;;;7.84;63.94;100383.84;5053374;28;20056;-69
2021/10/15 09:11:28;;;;;;;9.33;5.80;;;;;;;7.96;63.41;100379.13;5053226;28;20055;-70
2021/10/15 09:14:10;;;;;;;8.73;6.13;;;;;;;8.00;63.26;100369.88;5053584;28;20044;-68
2021/10/15 09:17:09;;;;;;;9.87;6.40;;;;;;;8.11;63.17;100374.94;5053318;28;20477;-67
2021/10/15 09:19:48;;;;;;;7.20;5.63;;;;;;;8.23;63.29;100376.31;5027937;28;20053;-70
2021/10/15 09:22:18;;;;;;;11.90;6.60;;;;;;;8.32;62.64;100364.75;5033123;28;20044;-70
2021/10/15 09:24:48;;;;;;;9.47;6.07;;;;;;;8.44;62.23;100361.88;5032869;28;20041;-66
2021/10/15 09:27:17;;;;;;;15.60;8.60;;;;;;;8.55;62.46;100349.16;5034854;28;20492;-68
2021/10/15 09:29:46;;;;;;;7.83;5.93;;;;;;;8.74;61.85;100347.25;5032022;28;20034;-72
2021/10/15 09:32:12;;;;;;;7.10;5.47;;;;;;;8.93;60.84;100353.09;5030424;28;20103;-70
2021/10/15 09:34:38;;;;;;;8.27;4.80;;;;;;;9.22;60.53;100357.13;5032742;28;20595;-66
2021/10/15 09:37:20;;;;;;;9.93;5.70;;;;;;;9.18;60.26;100339.88;5032994;28;20111;-68
2021/10/15 09:39:46;;;;;;;8.17;5.33;;;;;;;9.10;60.56;100363.78;5033175;28;20033;-70
2021/10/15 09:42:20;;;;;;;7.10;5.60;;;;;;;8.81;62.06;100342.94;5032769;28;20504;-70
2021/10/15 09:44:46;;;;;;;5.50;4.67;;;;;;;8.58;62.71;100350.66;5033033;28;20030;-68
2021/10/15 09:47:18;;;;;;;5.77;5.17;;;;;;;8.37;63.57;100357.19;5032781;28;20510;-68
2021/10/15 09:49:50;;;;;;;7.73;4.87;;;;;;;8.38;63.49;100347.41;5032787;28;20041;-70
2021/10/15 09:52:28;;;;;;;6.90;5.53;;;;;;;8.29;64.36;100346.50;5032515;28;20057;-69
2021/10/15 09:55:03;;;;;;;5.88;4.40;;;;;;;8.35;64.23;100345.06;5030338;28;20034;-71
2021/10/15 09:57:40;;;;;;;6.03;5.40;;;;;;;8.41;64.25;100344.44;5047903;28;20037;-68
2021/10/15 10:00:10;;;;;;;7.07;5.93;;;;;;;8.46;64.17;100338.66;5047630;28;20572;-70
2021/10/15 10:02:36;;;;;;;7.70;5.20;;;;;;;8.54;63.44;100336.88;5032394;28;20099;-70
2021/10/15 10:05:11;;;;;;;8.70;5.00;;;;;;;8.53;63.56;100339.69;5032555;28;20072;-69
2021/10/15 10:07:38;;;;;;;5.87;4.60;;;;;;;8.47;64.00;100319.94;5031898;28;20477;-69
2021/10/15 10:10:08;;;;;;;5.67;5.13;;;;;;;8.48;64.39;100315.44;5047546;28;20132;-71
2021/10/15 10:12:36;;;;;;;7.60;6.43;;;;;;;8.47;64.47;100309.31;5031777;28;20045;-68
2021/10/15 10:15:07;;;;;;;11.20;7.60;;;;;;;8.53;63.66;100313.97;5031719;28;20496;-69
2021/10/15 10:17:38;;;;;;;6.10;4.97;;;;;;;8.32;63.77;100285.16;5031658;28;20369;-69
2021/10/15 10:20:10;;;;;;;8.77;5.20;;;;;;;8.35;64.81;100294.66;5032539;28;20087;-69
2021/10/15 10:22:41;;;;;;;7.50;5.00;;;;;;;8.31;64.90;100299.41;5032128;28;20089;-68
2021/10/15 10:25:10;;;;;;;7.63;4.63;;;;;;;8.28;64.52;100310.34;5031976;28;20037;-69
2021/10/15 10:27:35;;;;;;;5.90;4.80;;;;;;;8.20;65.15;100306.84;5064098;28;20033;-70
2021/10/15 10:30:01;;;;;;;6.37;4.40;;;;;;;8.18;65.40;100299.03;5047091;28;20106;-70
2021/10/15 10:32:27;;;;;;;10.37;5.10;;;;;;;8.15;66.12;100307.31;5031675;28;20033;-69
2021/10/15 10:34:53;;;;;;;5.53;4.57;;;;;;;8.13;65.76;100287.25;5051510;28;20071;-69
2021/10/15 10:37:20;;;;;;;7.37;5.10;;;;;;;8.16;65.24;100287.75;5051747;28;20032;-72
2021/10/15 10:39:47;;;;;;;7.43;4.83;;;;;;;8.26;65.88;100293.75;5050531;28;20036;-68
2021/10/15 10:42:18;;;;;;;7.13;5.07;;;;;;;8.37;65.63;100282.88;5051354;28;20068;-70
2021/10/15 10:44:50;;;;;;;7.43;5.03;;;;;;;8.45;65.12;100287.41;5049827;28;20037;-67
2021/10/15 10:47:21;;;;;;;5.40;4.90;;;;;;;8.36;64.61;100257.34;5051399;28;20033;-73
2021/10/15 10:50:09;;;;;;;6.70;4.57;;;;;;;8.58;65.49;100277.16;5052266;28;20051;-72
2021/10/15 10:52:58;;;;;;;8.23;4.70;;;;;;;8.59;65.14;100273.50;5052358;28;20084;-73
2021/10/15 10:55:34;;;;;;;7.03;4.33;;;;;;;8.66;64.53;100281.66;5051567;28;20053;-74
2021/10/15 10:58:00;;;;;;;5.13;4.63;;;;;;;8.69;65.07;100279.53;5052193;28;20492;-76
2021/10/15 11:00:29;;;;;;;6.60;3.93;;;;;;;8.68;64.30;100279.69;5050615;28;20128;-71
2021/10/15 11:02:57;;;;;;;7.37;4.97;;;;;;;8.52;65.03;100282.28;5050149;28;20036;-71
2021/10/15 11:05:35;;;;;;;8.13;5.03;;;;;;;8.43;66.35;100276.13;5051760;28;20136;-72
2021/10/15 11:08:29;;;;;;;7.40;4.25;;;;;;;8.40;66.16;100273.81;5051700;28;20554;-72
2021/10/15 11:11:19;;;;;;;8.90;4.80;;;;;;;8.42;66.44;100268.34;5051782;28;20037;-70
2021/10/15 11:13:45;;;;;;;8.43;4.30;;;;;;;8.40;67.05;100267.66;5051363;28;20033;-73
2021/10/15 11:16:24;;;;;;;8.43;5.43;;;;;;;8.29;66.61;100258.94;5051202;28;20052;-72
2021/10/15 11:18:51;;;;;;;5.53;4.13;;;;;;;8.27;66.64;100260.94;5051624;28;20033;-72
2021/10/15 11:21:17;;;;;;;5.17;4.17;;;;;;;8.24;67.43;100249.81;5050156;28;20505;-71
2021/10/15 11:23:43;;;;;;;5.90;3.97;;;;;;;8.21;67.08;100256.28;5051615;28;20033;-72
2021/10/15 11:26:08;;;;;;;4.73;4.20;;;;;;;8.23;67.19;100248.97;5051951;28;20419;-73
2021/10/15 11:28:35;;;;;;;10.63;4.40;;;;;;;8.23;67.31;100238.38;5054923;28;20096;-73
2021/10/15 11:31:00;;;;;;;4.77;4.27;;;;;;;8.26;66.98;100242.53;5051329;28;20052;-72
2021/10/15 11:33:26;;;;;;;6.60;4.23;;;;;;;8.27;67.28;100244.19;5050784;28;20040;-73
2021/10/15 11:35:54;;;;;;;6.77;4.40;;;;;;;8.24;67.29;100234.72;5050858;28;20049;-71
2021/10/15 11:38:20;;;;;;;5.17;3.80;;;;;;;8.26;67.16;100238.06;5050945;28;20033;-72
2021/10/15 11:40:49;;;;;;;7.30;4.23;;;;;;;8.29;67.46;100237.72;5051069;28;20033;-73
2021/10/15 11:43:22;;;;;;;;;;;;;;;8.31;66.93;100246.34;5054867;28;20032;-72
2021/10/15 11:45:56;;;;;;;6.07;4.27;;;;;;;8.26;68.13;100232.75;5050822;28;19938;-73
2021/10/15 11:48:44;;;;;;;4.80;3.47;;;;;;;8.23;67.63;100225.09;5049761;28;20052;-72